Vizconde de Eza — EAXB — position and weather

sailwx.info

Track history (hours):
 
Tides and Currents Weather Stations Pressure Air Temp Water Temp Dewpoint Dewpoint Depression Visibility Wind Speed Wind Dir Waves Ship Positions

Oceanographic research ship Vizconde de Eza (Spain)

Detailed information on ship capabilities available from University of Delaware's Ocean Information Center.

Last reported at 2015-Apr-21 09:25 UTC. Time now 2015-May-30 22:44 UTC.
Position N 39°21' W 009°51'.
Warning: this ship's position is 39 days out of date.

Length 53 m; draft 6.2 m.

Type: Other ship. MMSI: 224582000.

Date/timePositionNaut miles runAvg speedWind from/ knotsBaromVisibWave heightAir tempDewpointWater temp
2015-Apr-21 09:25N 39°21' W 009°51'8 9.3
2015-Apr-21 08:33N 39°13' W 009°51'10 9.7
2015-Apr-21 07:33N 39°03' W 009°51'1010.0
2015-Apr-21 06:33N 38°53' W 009°51'1110.6
2015-Apr-21 05:33N 38°43' W 009°51'1111.0
2015-Apr-21 04:33N 38°32' W 009°48'1110.8
2015-Apr-21 03:32N 38°21' W 009°45'1110.7
2015-Apr-21 02:33N 38°11' W 009°42'1110.7
2015-Apr-21 01:31N 38°00' W 009°39'1010.7
2015-Apr-21 00:32N 37°50' W 009°36'1110.4
2015-Apr-20 23:32N 37°40' W 009°33'1010.4
2015-Apr-20 22:33N 37°30' W 009°30'1210.2
2015-Apr-20 21:21N 37°18' W 009°26'46 9.6
2015-Apr-20 16:33N 36°40' W 008°52'1211.2
2015-Apr-20 15:27N 36°37' W 008°38'3311.3
2015-Apr-20 12:33N 36°26' W 007°59'12111.0
2015-Apr-20 01:33N 35°58' W 005°34'10 9.9
2015-Apr-20 00:33N 36°01' W 005°22'9 8.8
2015-Apr-19 23:33N 36°03' W 005°11'19311.4
2015-Apr-19 06:33N 36°56' W 001°20'1211.8
2015-Apr-19 05:32N 37°03' W 001°08'1211.9
2015-Apr-19 04:33N 37°10' W 000°56'1211.8
2015-Apr-19 03:33N 37°17' W 000°44'1111.3
2015-Apr-19 02:33N 37°23' W 000°33'1111.5
2015-Apr-19 01:33N 37°30' W 000°21'1411.6
2015-Apr-19 00:20N 37°38' W 000°07'2111.6
2015-Apr-18 22:33N 37°50' E 000°15'1511.6
2015-Apr-18 21:15N 37°59' E 000°30'811.3
2015-Apr-18 20:32N 38°03' E 000°39'1111.0
2015-Apr-18 19:33N 38°10' E 000°50'1111.1
2015-Apr-18 18:33N 38°16' E 001°02'1111.2
2015-Apr-18 17:33N 38°22' E 001°13'1111.2
2015-Apr-18 16:33N 38°29' E 001°25'1211.5
2015-Apr-18 15:33N 38°35' E 001°37'1111.5
2015-Apr-18 14:33N 38°44' E 001°47'1211.8
2015-Apr-18 13:34N 38°53' E 001°57'1211.5
2015-Apr-18 12:33N 39°02' E 002°06'1211.7
2015-Apr-18 11:33N 39°10' E 002°16'1211.9
2015-Apr-18 10:33N 39°19' E 002°26'1211.6
2015-Apr-18 09:33N 39°28' E 002°36'5 5.1
2015-Apr-18 08:31N 39°33' E 002°38'0 0.0
2015-Apr-18 07:31N 39°33' E 002°38'0 0.0
2015-Apr-18 06:33N 39°33' E 002°38'3 3.1
2015-Apr-18 05:33N 39°30' E 002°38'7 6.8
2015-Apr-18 04:33N 39°26' E 002°31'7 7.0
2015-Apr-18 03:33N 39°29' E 002°22'9 8.9
2015-Apr-18 02:33N 39°36' E 002°16'1010.4
2015-Apr-18 01:33N 39°44' E 002°25'1110.8
2015-Apr-18 00:33N 39°51' E 002°36'1110.8
2015-Apr-17 23:33N 39°57' E 002°47'1110.5
2015-Apr-17 22:33N 40°03' E 002°58'1210.4
2015-Apr-17 21:22N 40°10' E 003°12'1010.7
2015-Apr-17 20:27N 40°16' E 003°22'2110.7
2015-Apr-17 18:31N 40°27' E 003°45'10 9.4
2015-Apr-17 17:25N 40°33' E 003°56'8 8.9
2015-Apr-17 16:30N 40°38' E 004°05'16 6.6
2015-Apr-17 14:07N 40°46' E 004°22'7 3.3
2015-Apr-17 12:03N 40°53' E 004°18'3 5.5
2015-Apr-17 11:33N 40°55' E 004°17'3 2.5
2015-Apr-17 10:19N 40°58' E 004°15'0 0.0
2015-Apr-17 09:33N 40°58' E 004°15'3 3.1
2015-Apr-17 08:26N 41°01' E 004°15'5 5.7
2015-Apr-17 07:32N 41°06' E 004°13'9 6.5
2015-Apr-17 06:13N 41°15' E 004°11'19 5.2
2015-Apr-17 02:32N 40°56' E 004°18'3 3.2
2015-Apr-17 01:31N 40°53' E 004°20'5 5.1
2015-Apr-17 00:30N 40°58' E 004°18'5 5.2
2015-Apr-16 23:33N 41°03' E 004°16'6 5.3
2015-Apr-16 22:30N 41°08' E 004°14'5 5.1
2015-Apr-16 21:33N 41°13' E 004°12'2 1.8
2015-Apr-16 20:33N 41°14' E 004°14'5 5.4
2015-Apr-16 19:33N 41°09' E 004°16'6 5.4
2015-Apr-16 18:32N 41°04' E 004°18'6 5.9
2015-Apr-16 17:32N 40°58' E 004°20'5 5.0
2015-Apr-16 16:27N 40°53' E 004°22'3 2.9
2015-Apr-16 15:29N 40°55' E 004°21'5 5.2
2015-Apr-16 14:29N 41°01' E 004°19'6 5.3
2015-Apr-16 13:17N 41°07' E 004°16'6 5.3
2015-Apr-16 12:09N 41°12' E 004°14'3 5.3
2015-Apr-16 11:33N 41°16' E 004°13'7 7.3
2015-Apr-16 10:32N 41°14' E 004°23'0 0.0
2015-Apr-16 09:26N 41°14' E 004°23'0 0.0
2015-Apr-16 08:33N 41°14' E 004°23'3 2.3
2015-Apr-16 07:21N 41°15' E 004°19'3 3.7
2015-Apr-16 06:33N 41°13' E 004°16'11 1.9
2015-Apr-16 00:33N 41°02' E 004°20'12 3.7
2015-Apr-15 21:22N 41°14' E 004°19'6 7.0
2015-Apr-15 20:33N 41°11' E 004°26'1 1.1
2015-Apr-15 19:33N 41°10' E 004°27'2 2.0
2015-Apr-15 18:33N 41°11' E 004°30'6 6.1
2015-Apr-15 17:33N 41°12' E 004°38'0 0.0
2015-Apr-15 16:33N 41°12' E 004°38'3 2.9
2015-Apr-15 15:30N 41°08' E 004°38'2 2.4
2015-Apr-15 14:29N 41°06' E 004°37'0 0.0
2015-Apr-15 13:27N 41°06' E 004°37'0 0.0
2015-Apr-15 12:27N 41°06' E 004°37'7 5.5
2015-Apr-15 11:12N 41°03' E 004°29'2 2.5
2015-Apr-15 10:32N 41°02' E 004°27'0 0.0
2015-Apr-15 09:27N 41°02' E 004°27'6 6.2
2015-Apr-15 08:32N 40°56' E 004°27'2 1.5
2015-Apr-15 07:25N 40°56' E 004°25'4 4.2
2015-Apr-15 06:25N 41°00' E 004°23'11 2.8
2015-Apr-15 02:23N 41°11' E 004°19'17 2.9
2015-Apr-14 20:20N 40°55' E 004°27'6 7.1
2015-Apr-14 19:33N 40°56' E 004°34'1 1.0
2015-Apr-14 18:33N 40°56' E 004°35'4 3.5
2015-Apr-14 17:24N 40°59' E 004°37'0 0.5
2015-Apr-14 16:25N 40°60' E 004°37'0 0.0
2015-Apr-14 15:33N 40°60' E 004°37'7 6.4
2015-Apr-14 14:31N 41°05' E 004°42'2 1.7
2015-Apr-14 13:31N 41°07' E 004°43'0 0.2
2015-Apr-14 12:33N 41°07' E 004°43'7 6.8
2015-Apr-14 11:32N 41°14' E 004°45'0 0.0
2015-Apr-14 10:20N 41°14' E 004°45'3 3.4
2015-Apr-14 09:29N 41°14' E 004°49'4 3.4
2015-Apr-14 08:17N 41°16' E 004°44'4 5.5
2015-Apr-14 07:33N 41°14' E 004°49'4 3.7
2015-Apr-14 06:29N 41°14' E 004°44'3 2.1
2015-Apr-14 05:13N 41°15' E 004°41'7 3.8
2015-Apr-14 03:21N 41°11' E 004°48'5 5.2
2015-Apr-14 02:27N 41°13' E 004°42'4 2.1
2015-Apr-14 00:33N 41°15' E 004°38'9 4.4
2015-Apr-13 22:24N 41°09' E 004°48'5 5.2
2015-Apr-13 21:24N 41°11' E 004°42'5 5.2
2015-Apr-13 20:22N 41°14' E 004°35'5 5.2
2015-Apr-13 19:29N 41°16' E 004°30'5 5.3
2015-Apr-13 18:33N 41°14' E 004°36'6 5.5
2015-Apr-13 17:30N 41°11' E 004°43'3 1.4
2015-Apr-13 15:27N 41°09' E 004°45'5 5.6
2015-Apr-13 14:30N 41°11' E 004°38'5 5.0
2015-Apr-13 13:28N 41°13' E 004°32'5 5.3
2015-Apr-13 12:30N 41°16' E 004°26'4 3.7
2015-Apr-13 11:33N 41°14' E 004°30'6 5.4
2015-Apr-13 10:26N 41°11' E 004°37'6 5.6
2015-Apr-13 09:23N 41°09' E 004°45'2 0.8
2015-Apr-13 07:24N 41°08' E 004°43'7 5.3
2015-Apr-13 06:09N 41°10' E 004°35'3 5.2
2015-Apr-13 05:30N 41°12' E 004°31'7 0.9
2015-Apr-12 21:27N 41°07' E 004°39'12 5.2
2015-Apr-12 19:06N 41°13' E 004°24'4 5.3
2015-Apr-12 18:20N 41°15' E 004°20'1 1.2
2015-Apr-12 17:31N 41°14' E 004°21'7 5.1
2015-Apr-12 16:06N 41°11' E 004°30'4 5.5
2015-Apr-12 15:27N 41°09' E 004°34'5 5.4
2015-Apr-12 14:33N 41°07' E 004°39'6 5.5
2015-Apr-12 13:33N 41°05' E 004°46'2 2.4
2015-Apr-12 12:33N 41°03' E 004°47'6 5.3
2015-Apr-12 11:22N 41°05' E 004°40'4 5.1
2015-Apr-12 10:33N 41°07' E 004°35'7 5.2
2015-Apr-12 09:11N 41°10' E 004°27'4 5.1
2015-Apr-12 08:24N 41°12' E 004°22'3 2.9
2015-Apr-12 07:28N 41°13' E 004°19'7 5.5
2015-Apr-12 06:09N 41°10' E 004°27'10 5.4
2015-Apr-12 04:21N 41°06' E 004°39'5 5.5
2015-Apr-12 03:30N 41°04' E 004°44'5 5.0
2015-Apr-12 02:33N 41°01' E 004°49'9 6.3
2015-Apr-12 01:08N 41°04' E 004°38'3 2.5
2015-Apr-12 00:06N 41°06' E 004°35'4 5.3
2015-Apr-11 23:24N 41°07' E 004°31'10 5.3
2015-Apr-11 21:24N 41°12' E 004°18'0 0.1
2015-Apr-11 20:27N 41°12' E 004°18'5 5.6
2015-Apr-11 19:30N 41°10' E 004°25'5 5.3
2015-Apr-11 18:33N 41°07' E 004°31'5 5.4
2015-Apr-11 17:33N 41°05' E 004°37'5 5.1
2015-Apr-11 16:31N 41°02' E 004°43'6 5.5
2015-Apr-11 15:29N 40°60' E 004°50'4 4.3
2015-Apr-11 14:30N 41°00' E 004°45'5 5.2
2015-Apr-11 13:30N 41°03' E 004°38'5 5.1
2015-Apr-11 12:29N 41°05' E 004°32'5 5.1
2015-Apr-11 11:33N 41°07' E 004°27'5 5.1
2015-Apr-11 10:33N 41°09' E 004°21'3 2.6
2015-Apr-11 09:32N 41°08' E 004°24'  
Track history (hours):
 
Tides and Currents Weather Stations Pressure Air Temp Water Temp Dewpoint Dewpoint Depression Visibility Wind Speed Wind Dir Waves Ship Positions

Oceanographic research ship Vizconde de Eza (Spain)

Detailed information on ship capabilities available from University of Delaware's Ocean Information Center.

Last reported at 2015-Apr-21 09:25 UTC. Time now 2015-May-30 22:44 UTC.
Position N 39°21' W 009°51'.
Warning: this ship's position is 39 days out of date.

Length 53 m; draft 6.2 m.

Type: Other ship. MMSI: 224582000.

Date/timePositionNaut miles runAvg speedWind from/ knotsBaromVisibWave heightAir tempDewpointWater temp
2015-Apr-21 09:25N 39°21' W 009°51'8 9.3
2015-Apr-21 08:33N 39°13' W 009°51'10 9.7
2015-Apr-21 07:33N 39°03' W 009°51'1010.0
2015-Apr-21 06:33N 38°53' W 009°51'1110.6
2015-Apr-21 05:33N 38°43' W 009°51'1111.0
2015-Apr-21 04:33N 38°32' W 009°48'1110.8
2015-Apr-21 03:32N 38°21' W 009°45'1110.7
2015-Apr-21 02:33N 38°11' W 009°42'1110.7
2015-Apr-21 01:31N 38°00' W 009°39'1010.7
2015-Apr-21 00:32N 37°50' W 009°36'1110.4
2015-Apr-20 23:32N 37°40' W 009°33'1010.4
2015-Apr-20 22:33N 37°30' W 009°30'1210.2
2015-Apr-20 21:21N 37°18' W 009°26'46 9.6
2015-Apr-20 16:33N 36°40' W 008°52'1211.2
2015-Apr-20 15:27N 36°37' W 008°38'3311.3
2015-Apr-20 12:33N 36°26' W 007°59'12111.0
2015-Apr-20 01:33N 35°58' W 005°34'10 9.9
2015-Apr-20 00:33N 36°01' W 005°22'9 8.8
2015-Apr-19 23:33N 36°03' W 005°11'19311.4
2015-Apr-19 06:33N 36°56' W 001°20'1211.8
2015-Apr-19 05:32N 37°03' W 001°08'1211.9
2015-Apr-19 04:33N 37°10' W 000°56'1211.8
2015-Apr-19 03:33N 37°17' W 000°44'1111.3
2015-Apr-19 02:33N 37°23' W 000°33'1111.5
2015-Apr-19 01:33N 37°30' W 000°21'1411.6
2015-Apr-19 00:20N 37°38' W 000°07'2111.6
2015-Apr-18 22:33N 37°50' E 000°15'1511.6
2015-Apr-18 21:15N 37°59' E 000°30'811.3
2015-Apr-18 20:32N 38°03' E 000°39'1111.0
2015-Apr-18 19:33N 38°10' E 000°50'1111.1
2015-Apr-18 18:33N 38°16' E 001°02'1111.2
2015-Apr-18 17:33N 38°22' E 001°13'1111.2
2015-Apr-18 16:33N 38°29' E 001°25'1211.5
2015-Apr-18 15:33N 38°35' E 001°37'1111.5
2015-Apr-18 14:33N 38°44' E 001°47'1211.8
2015-Apr-18 13:34N 38°53' E 001°57'1211.5
2015-Apr-18 12:33N 39°02' E 002°06'1211.7
2015-Apr-18 11:33N 39°10' E 002°16'1211.9
2015-Apr-18 10:33N 39°19' E 002°26'1211.6
2015-Apr-18 09:33N 39°28' E 002°36'5 5.1
2015-Apr-18 08:31N 39°33' E 002°38'0 0.0
2015-Apr-18 07:31N 39°33' E 002°38'0 0.0
2015-Apr-18 06:33N 39°33' E 002°38'3 3.1
2015-Apr-18 05:33N 39°30' E 002°38'7 6.8
2015-Apr-18 04:33N 39°26' E 002°31'7 7.0
2015-Apr-18 03:33N 39°29' E 002°22'9 8.9
2015-Apr-18 02:33N 39°36' E 002°16'1010.4
2015-Apr-18 01:33N 39°44' E 002°25'1110.8
2015-Apr-18 00:33N 39°51' E 002°36'1110.8
2015-Apr-17 23:33N 39°57' E 002°47'1110.5
2015-Apr-17 22:33N 40°03' E 002°58'1210.4
2015-Apr-17 21:22N 40°10' E 003°12'1010.7
2015-Apr-17 20:27N 40°16' E 003°22'2110.7
2015-Apr-17 18:31N 40°27' E 003°45'10 9.4
2015-Apr-17 17:25N 40°33' E 003°56'8 8.9
2015-Apr-17 16:30N 40°38' E 004°05'16 6.6
2015-Apr-17 14:07N 40°46' E 004°22'7 3.3
2015-Apr-17 12:03N 40°53' E 004°18'3 5.5
2015-Apr-17 11:33N 40°55' E 004°17'3 2.5
2015-Apr-17 10:19N 40°58' E 004°15'0 0.0
2015-Apr-17 09:33N 40°58' E 004°15'3 3.1
2015-Apr-17 08:26N 41°01' E 004°15'5 5.7
2015-Apr-17 07:32N 41°06' E 004°13'9 6.5
2015-Apr-17 06:13N 41°15' E 004°11'19 5.2
2015-Apr-17 02:32N 40°56' E 004°18'3 3.2
2015-Apr-17 01:31N 40°53' E 004°20'5 5.1
2015-Apr-17 00:30N 40°58' E 004°18'5 5.2
2015-Apr-16 23:33N 41°03' E 004°16'6 5.3
2015-Apr-16 22:30N 41°08' E 004°14'5 5.1
2015-Apr-16 21:33N 41°13' E 004°12'2 1.8
2015-Apr-16 20:33N 41°14' E 004°14'5 5.4
2015-Apr-16 19:33N 41°09' E 004°16'6 5.4
2015-Apr-16 18:32N 41°04' E 004°18'6 5.9
2015-Apr-16 17:32N 40°58' E 004°20'5 5.0
2015-Apr-16 16:27N 40°53' E 004°22'3 2.9
2015-Apr-16 15:29N 40°55' E 004°21'5 5.2
2015-Apr-16 14:29N 41°01' E 004°19'6 5.3
2015-Apr-16 13:17N 41°07' E 004°16'6 5.3
2015-Apr-16 12:09N 41°12' E 004°14'3 5.3
2015-Apr-16 11:33N 41°16' E 004°13'7 7.3
2015-Apr-16 10:32N 41°14' E 004°23'0 0.0
2015-Apr-16 09:26N 41°14' E 004°23'0 0.0
2015-Apr-16 08:33N 41°14' E 004°23'3 2.3
2015-Apr-16 07:21N 41°15' E 004°19'3 3.7
2015-Apr-16 06:33N 41°13' E 004°16'11 1.9
2015-Apr-16 00:33N 41°02' E 004°20'12 3.7
2015-Apr-15 21:22N 41°14' E 004°19'6 7.0
2015-Apr-15 20:33N 41°11' E 004°26'1 1.1
2015-Apr-15 19:33N 41°10' E 004°27'2 2.0
2015-Apr-15 18:33N 41°11' E 004°30'6 6.1
2015-Apr-15 17:33N 41°12' E 004°38'0 0.0
2015-Apr-15 16:33N 41°12' E 004°38'3 2.9
2015-Apr-15 15:30N 41°08' E 004°38'2 2.4
2015-Apr-15 14:29N 41°06' E 004°37'0 0.0
2015-Apr-15 13:27N 41°06' E 004°37'0 0.0
2015-Apr-15 12:27N 41°06' E 004°37'7 5.5
2015-Apr-15 11:12N 41°03' E 004°29'2 2.5
2015-Apr-15 10:32N 41°02' E 004°27'0 0.0
2015-Apr-15 09:27N 41°02' E 004°27'6 6.2
2015-Apr-15 08:32N 40°56' E 004°27'2 1.5
2015-Apr-15 07:25N 40°56' E 004°25'4 4.2
2015-Apr-15 06:25N 41°00' E 004°23'11 2.8
2015-Apr-15 02:23N 41°11' E 004°19'17 2.9
2015-Apr-14 20:20N 40°55' E 004°27'6 7.1
2015-Apr-14 19:33N 40°56' E 004°34'1 1.0
2015-Apr-14 18:33N 40°56' E 004°35'4 3.5
2015-Apr-14 17:24N 40°59' E 004°37'0 0.5
2015-Apr-14 16:25N 40°60' E 004°37'0 0.0
2015-Apr-14 15:33N 40°60' E 004°37'7 6.4
2015-Apr-14 14:31N 41°05' E 004°42'2 1.7
2015-Apr-14 13:31N 41°07' E 004°43'0 0.2
2015-Apr-14 12:33N 41°07' E 004°43'7 6.8
2015-Apr-14 11:32N 41°14' E 004°45'0 0.0
2015-Apr-14 10:20N 41°14' E 004°45'3 3.4
2015-Apr-14 09:29N 41°14' E 004°49'4 3.4
2015-Apr-14 08:17N 41°16' E 004°44'4 5.5
2015-Apr-14 07:33N 41°14' E 004°49'4 3.7
2015-Apr-14 06:29N 41°14' E 004°44'3 2.1
2015-Apr-14 05:13N 41°15' E 004°41'7 3.8
2015-Apr-14 03:21N 41°11' E 004°48'5 5.2
2015-Apr-14 02:27N 41°13' E 004°42'4 2.1
2015-Apr-14 00:33N 41°15' E 004°38'9 4.4
2015-Apr-13 22:24N 41°09' E 004°48'5 5.2
2015-Apr-13 21:24N 41°11' E 004°42'5 5.2
2015-Apr-13 20:22N 41°14' E 004°35'5 5.2
2015-Apr-13 19:29N 41°16' E 004°30'5 5.3
2015-Apr-13 18:33N 41°14' E 004°36'6 5.5
2015-Apr-13 17:30N 41°11' E 004°43'3 1.4
2015-Apr-13 15:27N 41°09' E 004°45'5 5.6
2015-Apr-13 14:30N 41°11' E 004°38'5 5.0
2015-Apr-13 13:28N 41°13' E 004°32'5 5.3
2015-Apr-13 12:30N 41°16' E 004°26'4 3.7
2015-Apr-13 11:33N 41°14' E 004°30'6 5.4
2015-Apr-13 10:26N 41°11' E 004°37'6 5.6
2015-Apr-13 09:23N 41°09' E 004°45'2 0.8
2015-Apr-13 07:24N 41°08' E 004°43'7 5.3
2015-Apr-13 06:09N 41°10' E 004°35'3 5.2
2015-Apr-13 05:30N 41°12' E 004°31'7 0.9
2015-Apr-12 21:27N 41°07' E 004°39'12 5.2
2015-Apr-12 19:06N 41°13' E 004°24'4 5.3
2015-Apr-12 18:20N 41°15' E 004°20'1 1.2
2015-Apr-12 17:31N 41°14' E 004°21'7 5.1
2015-Apr-12 16:06N 41°11' E 004°30'4 5.5
2015-Apr-12 15:27N 41°09' E 004°34'5 5.4
2015-Apr-12 14:33N 41°07' E 004°39'6 5.5
2015-Apr-12 13:33N 41°05' E 004°46'2 2.4
2015-Apr-12 12:33N 41°03' E 004°47'6 5.3
2015-Apr-12 11:22N 41°05' E 004°40'4 5.1
2015-Apr-12 10:33N 41°07' E 004°35'7 5.2
2015-Apr-12 09:11N 41°10' E 004°27'4 5.1
2015-Apr-12 08:24N 41°12' E 004°22'3 2.9
2015-Apr-12 07:28N 41°13' E 004°19'7 5.5
2015-Apr-12 06:09N 41°10' E 004°27'10 5.4
2015-Apr-12 04:21N 41°06' E 004°39'5 5.5
2015-Apr-12 03:30N 41°04' E 004°44'5 5.0
2015-Apr-12 02:33N 41°01' E 004°49'9 6.3
2015-Apr-12 01:08N 41°04' E 004°38'3 2.5
2015-Apr-12 00:06N 41°06' E 004°35'4 5.3
2015-Apr-11 23:24N 41°07' E 004°31'10 5.3
2015-Apr-11 21:24N 41°12' E 004°18'0 0.1
2015-Apr-11 20:27N 41°12' E 004°18'5 5.6
2015-Apr-11 19:30N 41°10' E 004°25'5 5.3
2015-Apr-11 18:33N 41°07' E 004°31'5 5.4
2015-Apr-11 17:33N 41°05' E 004°37'5 5.1
2015-Apr-11 16:31N 41°02' E 004°43'6 5.5
2015-Apr-11 15:29N 40°60' E 004°50'4 4.3
2015-Apr-11 14:30N 41°00' E 004°45'5 5.2
2015-Apr-11 13:30N 41°03' E 004°38'5 5.1
2015-Apr-11 12:29N 41°05' E 004°32'5 5.1
2015-Apr-11 11:33N 41°07' E 004°27'5 5.1
2015-Apr-11 10:33N 41°09' E 004°21'3 2.6
2015-Apr-11 09:32N 41°08' E 004°24'  

Dump ship's entire track history